Weather at CFB Trenton

Public forecast

Using degrees Celsius for public forecast. Weather courtesy of forecast.io.

Current aviation weather report (METAR) for CFB Trenton

2024/06/19 08:00 (retrieved 12 minutes ago)

CYTR 190800Z 13002KT 15SM BKN130 22/21 A3017 RMK AC6 DENSITY ALT 1204FT SLP216

Aviation forecast (TAF) for CFB Trenton

2024/06/19 06:42 (retrieved 1 hour ago)

TAF CYTR 190540Z 1906/2006 24005KT P6SM SCT120 BKN210 FM191400 21008KT P6SM FEW060 BKN220 BECMG 1923/2001 24005KT FM200500 24005KT P6SM BKN060 BKN220 RMK NXT FCST BY 191200Z